METAR

METAR COR LDZA 061930Z 09005KT 070V140 5000 BR NSC M02/M04 Q1033 NOSIG =
METAR LDSP 061930Z 35004KT 320V020 CAVOK 10/07 Q1029 NOSIG=
METAR LDDU 061930Z 33005KT 270V030 9999 FEW060 11/05 Q1028 NOSIG =
METAR COR LDZD 061930Z VRB02KT CAVOK 04/04 Q1029 NOSIG =
METAR LDPL 061930Z 00000KT CAVOK 05/04 Q1030 NOSIG=
METAR LDOS 061930Z 32008KT CAVOK M01/M03 Q1032=

TAF

TAF AMD LDZA 061829Z 0618/0718 VRB02KT 3000 BR NSC
                     TX04/0712Z TNM07/0705Z
               BECMG 0621/0623 1200
              PROB40 0620/0708 0100 FZFG VV001
               BECMG 0710/0712 3000 BKN003
              PROB40 0712/0716 6000 NSW=
TAF LDSP 061725Z 0618/0718 05005KT CAVOK
                 TX13/0713Z TN04/0706Z
           TEMPO 0701/0708 05010KT=
TAF LDDU 061725Z 0618/0718 02008KT CAVOK
                 TX14/0712Z TN07/0705Z
           BECMG 0623/0701 02018KT
           TEMPO 0701/0707 02020G30KT=
TAF AMD LDZD 061932Z 0619/0718 VRB02KT CAVOK
                     TX12/0712Z TN04/0705Z
        PROB30 TEMPO 0619/0622 4000 BR
               BECMG 0623/0701 06008KT
               TEMPO 0702/0710 06015KT=
TAF LDPL 061725Z 0618/0718 30007KT CAVOK
                 TX11/0712Z TN04/0705Z
           BECMG 0700/0702 06007KT
           TEMPO 0706/0712 06014KT=
TAF LDOS 061725Z 0618/0718 29008KT 8000 NSC
                 TX02/0713Z TNM07/0705Z
           BECMG 0700/0702 3000 BR
          PROB30 0704/0708 0500 FZFG
           BECMG 0709/0711 6000 NSW=
TAF AMD LDRI 061514Z 0615/0712 CNL=

SIGMET

AIRMET

Ukoliko se brzina i smjer vjetra ne mogu odrediti zbog privremenog kvara sustava/indikatora,
informacija o vjetru u METAR izvješću bit će prikazana kao "/////KT".

 

Disclaimer

 

In case of temporary system/sensor failure, wind speed and direction data will be represented as "/////KT" in METAR report.